sensor_id;sensor_type;location;lat;lon;timestamp;temperature;humidity
9414;DHT22;4746;35.664;139.738;2022-10-31T00:01:38;15.00;99.90
9414;DHT22;4746;35.664;139.738;2022-10-31T00:04:06;15.00;99.90
9414;DHT22;4746;35.664;139.738;2022-10-31T00:06:34;15.00;99.90
9414;DHT22;4746;35.664;139.738;2022-10-31T00:09:03;15.00;99.90
9414;DHT22;4746;35.664;139.738;2022-10-31T00:11:32;15.00;99.90
9414;DHT22;4746;35.664;139.738;2022-10-31T00:14:00;15.00;99.90
9414;DHT22;4746;35.664;139.738;2022-10-31T00:16:28;15.10;99.90
9414;DHT22;4746;35.664;139.738;2022-10-31T00:19:02;15.10;99.90
9414;DHT22;4746;35.664;139.738;2022-10-31T00:21:31;15.10;99.90
9414;DHT22;4746;35.664;139.738;2022-10-31T00:24:00;15.20;99.90
9414;DHT22;4746;35.664;139.738;2022-10-31T00:26:31;15.20;99.90
9414;DHT22;4746;35.664;139.738;2022-10-31T00:29:00;15.30;99.90
9414;DHT22;4746;35.664;139.738;2022-10-31T00:31:28;15.40;99.90
9414;DHT22;4746;35.664;139.738;2022-10-31T00:33:56;15.50;99.90
9414;DHT22;4746;35.664;139.738;2022-10-31T00:36:24;15.50;99.90
9414;DHT22;4746;35.664;139.738;2022-10-31T00:38:52;15.60;99.90
9414;DHT22;4746;35.664;139.738;2022-10-31T00:41:19;15.60;99.90
9414;DHT22;4746;35.664;139.738;2022-10-31T00:43:47;15.70;99.90
9414;DHT22;4746;35.664;139.738;2022-10-31T00:46:14;15.70;99.90
9414;DHT22;4746;35.664;139.738;2022-10-31T00:48:42;15.80;99.90
9414;DHT22;4746;35.664;139.738;2022-10-31T00:51:10;15.80;99.90
9414;DHT22;4746;35.664;139.738;2022-10-31T00:53:38;15.80;99.90
9414;DHT22;4746;35.664;139.738;2022-10-31T00:56:06;15.90;99.90
9414;DHT22;4746;35.664;139.738;2022-10-31T00:58:33;16.00;99.90
9414;DHT22;4746;35.664;139.738;2022-10-31T01:01:01;16.00;99.90
9414;DHT22;4746;35.664;139.738;2022-10-31T01:03:32;16.10;99.90
9414;DHT22;4746;35.664;139.738;2022-10-31T01:06:05;16.10;99.90
9414;DHT22;4746;35.664;139.738;2022-10-31T01:08:36;16.20;99.90
9414;DHT22;4746;35.664;139.738;2022-10-31T01:11:16;16.20;99.90
9414;DHT22;4746;35.664;139.738;2022-10-31T01:13:46;16.30;99.90
9414;DHT22;4746;35.664;139.738;2022-10-31T01:16:20;16.40;99.90
9414;DHT22;4746;35.664;139.738;2022-10-31T01:18:50;16.40;99.90
9414;DHT22;4746;35.664;139.738;2022-10-31T01:21:22;16.30;99.90
9414;DHT22;4746;35.664;139.738;2022-10-31T01:23:53;16.40;99.90
9414;DHT22;4746;35.664;139.738;2022-10-31T01:26:25;16.50;99.90
9414;DHT22;4746;35.664;139.738;2022-10-31T01:28:57;16.60;99.90
9414;DHT22;4746;35.664;139.738;2022-10-31T01:31:36;16.70;99.90
9414;DHT22;4746;35.664;139.738;2022-10-31T01:34:06;16.80;99.90
9414;DHT22;4746;35.664;139.738;2022-10-31T01:36:36;16.80;99.90
9414;DHT22;4746;35.664;139.738;2022-10-31T01:39:09;16.90;99.90
9414;DHT22;4746;35.664;139.738;2022-10-31T01:41:42;17.00;99.90
9414;DHT22;4746;35.664;139.738;2022-10-31T01:49:45;17.20;99.90
9414;DHT22;4746;35.664;139.738;2022-10-31T01:52:24;17.20;99.90
9414;DHT22;4746;35.664;139.738;2022-10-31T01:55:03;17.30;99.90
9414;DHT22;4746;35.664;139.738;2022-10-31T01:57:41;17.40;99.90
9414;DHT22;4746;35.664;139.738;2022-10-31T02:00:13;17.60;99.90
9414;DHT22;4746;35.664;139.738;2022-10-31T02:02:42;17.60;99.90
9414;DHT22;4746;35.664;139.738;2022-10-31T02:05:18;17.70;99.90
9414;DHT22;4746;35.664;139.738;2022-10-31T02:10:30;18.00;99.90
9414;DHT22;4746;35.664;139.738;2022-10-31T02:13:02;18.00;99.90
9414;DHT22;4746;35.664;139.738;2022-10-31T02:15:33;18.10;99.90
9414;DHT22;4746;35.664;139.738;2022-10-31T02:18:03;18.20;99.90
9414;DHT22;4746;35.664;139.738;2022-10-31T02:47:37;19.10;99.90
9414;DHT22;4746;35.664;139.738;2022-10-31T02:50:11;19.30;99.90
9414;DHT22;4746;35.664;139.738;2022-10-31T02:52:42;19.40;99.90
9414;DHT22;4746;35.664;139.738;2022-10-31T02:58:00;19.70;99.90
9414;DHT22;4746;35.664;139.738;2022-10-31T03:03:42;20.20;99.30
9414;DHT22;4746;35.664;139.738;2022-10-31T03:17:37;21.20;95.80
9414;DHT22;4746;35.664;139.738;2022-10-31T03:21:20;21.50;94.70
9414;DHT22;4746;35.664;139.738;2022-10-31T03:23:36;21.80;94.50
9414;DHT22;4746;35.664;139.738;2022-10-31T03:26:08;22.10;93.90
9414;DHT22;4746;35.664;139.738;2022-10-31T03:28:51;22.20;92.50
9414;DHT22;4746;35.664;139.738;2022-10-31T03:31:40;22.40;90.60
9414;DHT22;4746;35.664;139.738;2022-10-31T03:34:31;22.50;88.20
9414;DHT22;4746;35.664;139.738;2022-10-31T03:37:04;22.70;87.80
9414;DHT22;4746;35.664;139.738;2022-10-31T03:39:38;22.80;84.60
9414;DHT22;4746;35.664;139.738;2022-10-31T03:42:21;22.90;81.10
9414;DHT22;4746;35.664;139.738;2022-10-31T03:45:06;23.00;78.80
9414;DHT22;4746;35.664;139.738;2022-10-31T03:47:40;23.00;78.30
9414;DHT22;4746;35.664;139.738;2022-10-31T03:50:11;23.00;77.60
9414;DHT22;4746;35.664;139.738;2022-10-31T03:53:30;23.00;75.30
9414;DHT22;4746;35.664;139.738;2022-10-31T03:55:56;23.30;76.20
9414;DHT22;4746;35.664;139.738;2022-10-31T03:58:39;23.50;72.60
9414;DHT22;4746;35.664;139.738;2022-10-31T04:01:14;23.90;71.70
9414;DHT22;4746;35.664;139.738;2022-10-31T04:03:47;24.50;72.30
9414;DHT22;4746;35.664;139.738;2022-10-31T04:06:19;25.00;68.40
9414;DHT22;4746;35.664;139.738;2022-10-31T04:08:53;25.40;65.20
9414;DHT22;4746;35.664;139.738;2022-10-31T04:11:42;25.50;62.00
9414;DHT22;4746;35.664;139.738;2022-10-31T04:14:17;25.70;60.50
9414;DHT22;4746;35.664;139.738;2022-10-31T04:16:45;26.10;58.20
9414;DHT22;4746;35.664;139.738;2022-10-31T04:19:13;26.20;59.10
9414;DHT22;4746;35.664;139.738;2022-10-31T04:21:41;26.60;56.70
9414;DHT22;4746;35.664;139.738;2022-10-31T04:24:12;26.50;55.60
9414;DHT22;4746;35.664;139.738;2022-10-31T04:26:40;26.60;56.00
9414;DHT22;4746;35.664;139.738;2022-10-31T04:29:07;26.70;53.80
9414;DHT22;4746;35.664;139.738;2022-10-31T04:31:35;26.90;54.10
9414;DHT22;4746;35.664;139.738;2022-10-31T04:34:02;26.90;52.00
9414;DHT22;4746;35.664;139.738;2022-10-31T04:36:30;27.30;51.50
9414;DHT22;4746;35.664;139.738;2022-10-31T04:38:57;27.70;49.70
9414;DHT22;4746;35.664;139.738;2022-10-31T04:41:25;28.20;49.30
9414;DHT22;4746;35.664;139.738;2022-10-31T04:43:53;28.50;47.90
9414;DHT22;4746;35.664;139.738;2022-10-31T04:46:21;28.60;45.50
9414;DHT22;4746;35.664;139.738;2022-10-31T04:48:49;29.10;46.00
9414;DHT22;4746;35.664;139.738;2022-10-31T04:51:16;29.60;45.20
9414;DHT22;4746;35.664;139.738;2022-10-31T04:53:44;30.00;43.20
9414;DHT22;4746;35.664;139.738;2022-10-31T04:56:11;30.40;41.10
9414;DHT22;4746;35.664;139.738;2022-10-31T04:58:39;30.70;40.60
9414;DHT22;4746;35.664;139.738;2022-10-31T05:01:06;31.10;40.90
9414;DHT22;4746;35.664;139.738;2022-10-31T05:03:34;31.60;40.70
9414;DHT22;4746;35.664;139.738;2022-10-31T05:06:01;32.30;39.00
9414;DHT22;4746;35.664;139.738;2022-10-31T05:08:29;33.00;37.20
9414;DHT22;4746;35.664;139.738;2022-10-31T05:11:00;33.20;36.50
9414;DHT22;4746;35.664;139.738;2022-10-31T05:13:29;33.40;35.40
9414;DHT22;4746;35.664;139.738;2022-10-31T05:15:56;33.70;34.00
9414;DHT22;4746;35.664;139.738;2022-10-31T05:18:24;33.10;33.00
9414;DHT22;4746;35.664;139.738;2022-10-31T05:20:51;33.10;33.10
9414;DHT22;4746;35.664;139.738;2022-10-31T05:23:19;33.10;32.50
9414;DHT22;4746;35.664;139.738;2022-10-31T05:25:46;33.40;32.10
9414;DHT22;4746;35.664;139.738;2022-10-31T05:28:14;33.40;32.20
9414;DHT22;4746;35.664;139.738;2022-10-31T05:30:41;33.60;31.70
9414;DHT22;4746;35.664;139.738;2022-10-31T05:33:09;33.80;31.40
9414;DHT22;4746;35.664;139.738;2022-10-31T05:35:36;34.10;31.40
9414;DHT22;4746;35.664;139.738;2022-10-31T05:38:04;34.60;30.50
9414;DHT22;4746;35.664;139.738;2022-10-31T05:40:31;34.50;29.50
9414;DHT22;4746;35.664;139.738;2022-10-31T05:42:59;34.30;29.20
9414;DHT22;4746;35.664;139.738;2022-10-31T05:45:26;33.90;29.10
9414;DHT22;4746;35.664;139.738;2022-10-31T05:47:56;33.70;28.80
9414;DHT22;4746;35.664;139.738;2022-10-31T05:50:26;34.00;28.60
9414;DHT22;4746;35.664;139.738;2022-10-31T05:53:05;34.30;28.40
9414;DHT22;4746;35.664;139.738;2022-10-31T05:55:34;34.40;27.80
9414;DHT22;4746;35.664;139.738;2022-10-31T05:58:02;34.30;27.90
9414;DHT22;4746;35.664;139.738;2022-10-31T06:00:29;34.40;28.00
9414;DHT22;4746;35.664;139.738;2022-10-31T06:03:01;34.30;27.60
9414;DHT22;4746;35.664;139.738;2022-10-31T06:05:31;34.70;27.50
9414;DHT22;4746;35.664;139.738;2022-10-31T06:07:59;35.10;27.60
9414;DHT22;4746;35.664;139.738;2022-10-31T06:10:27;35.60;27.70
9414;DHT22;4746;35.664;139.738;2022-10-31T06:12:55;36.00;27.20
9414;DHT22;4746;35.664;139.738;2022-10-31T06:15:23;36.20;26.80
9414;DHT22;4746;35.664;139.738;2022-10-31T06:18:04;36.20;26.90
9414;DHT22;4746;35.664;139.738;2022-10-31T06:20:33;36.40;26.00
9414;DHT22;4746;35.664;139.738;2022-10-31T06:23:01;36.50;26.20
9414;DHT22;4746;35.664;139.738;2022-10-31T06:25:29;36.10;26.00
9414;DHT22;4746;35.664;139.738;2022-10-31T06:27:57;35.70;25.70
9414;DHT22;4746;35.664;139.738;2022-10-31T06:30:25;35.40;25.90
9414;DHT22;4746;35.664;139.738;2022-10-31T06:32:53;35.40;26.10
9414;DHT22;4746;35.664;139.738;2022-10-31T06:35:20;35.20;26.00
9414;DHT22;4746;35.664;139.738;2022-10-31T06:37:52;35.30;26.20
9414;DHT22;4746;35.664;139.738;2022-10-31T06:40:20;35.40;26.00
9414;DHT22;4746;35.664;139.738;2022-10-31T06:42:56;35.40;26.10
9414;DHT22;4746;35.664;139.738;2022-10-31T06:45:25;35.50;25.90
9414;DHT22;4746;35.664;139.738;2022-10-31T06:47:54;35.40;26.00
9414;DHT22;4746;35.664;139.738;2022-10-31T06:50:23;34.20;26.00
9414;DHT22;4746;35.664;139.738;2022-10-31T06:52:55;32.80;26.50
9414;DHT22;4746;35.664;139.738;2022-10-31T06:55:26;31.30;27.50
9414;DHT22;4746;35.664;139.738;2022-10-31T06:57:55;30.20;28.30
9414;DHT22;4746;35.664;139.738;2022-10-31T07:00:25;29.30;29.20
9414;DHT22;4746;35.664;139.738;2022-10-31T07:02:59;28.60;29.80
9414;DHT22;4746;35.664;139.738;2022-10-31T07:05:28;28.30;30.30
9414;DHT22;4746;35.664;139.738;2022-10-31T07:07:59;27.90;30.90
9414;DHT22;4746;35.664;139.738;2022-10-31T07:10:31;28.10;31.20
9414;DHT22;4746;35.664;139.738;2022-10-31T07:13:03;28.40;31.00
9414;DHT22;4746;35.664;139.738;2022-10-31T07:15:37;28.80;30.90
9414;DHT22;4746;35.664;139.738;2022-10-31T07:18:08;29.10;30.70
9414;DHT22;4746;35.664;139.738;2022-10-31T07:20:37;29.10;30.80
9414;DHT22;4746;35.664;139.738;2022-10-31T07:23:05;29.40;30.80
9414;DHT22;4746;35.664;139.738;2022-10-31T07:25:33;29.60;30.90
9414;DHT22;4746;35.664;139.738;2022-10-31T07:28:00;29.50;30.70
9414;DHT22;4746;35.664;139.738;2022-10-31T07:30:28;29.20;30.80
9414;DHT22;4746;35.664;139.738;2022-10-31T07:32:55;28.70;31.00
9414;DHT22;4746;35.664;139.738;2022-10-31T07:35:26;28.20;31.60
9414;DHT22;4746;35.664;139.738;2022-10-31T07:37:55;27.60;32.40
9414;DHT22;4746;35.664;139.738;2022-10-31T07:40:24;26.90;33.10
9414;DHT22;4746;35.664;139.738;2022-10-31T07:42:53;26.30;34.40
9414;DHT22;4746;35.664;139.738;2022-10-31T07:45:21;25.80;36.10
9414;DHT22;4746;35.664;139.738;2022-10-31T07:47:50;25.00;38.00
9414;DHT22;4746;35.664;139.738;2022-10-31T07:50:25;24.40;39.20
9414;DHT22;4746;35.664;139.738;2022-10-31T07:53:04;24.00;40.30
9414;DHT22;4746;35.664;139.738;2022-10-31T07:55:34;23.70;41.90
9414;DHT22;4746;35.664;139.738;2022-10-31T07:58:13;23.30;42.60
9414;DHT22;4746;35.664;139.738;2022-10-31T08:00:44;23.00;44.30
9414;DHT22;4746;35.664;139.738;2022-10-31T08:03:15;22.70;45.80
9414;DHT22;4746;35.664;139.738;2022-10-31T08:05:44;22.40;47.00
9414;DHT22;4746;35.664;139.738;2022-10-31T08:08:15;22.10;48.20
9414;DHT22;4746;35.664;139.738;2022-10-31T08:10:42;21.60;52.00
9414;DHT22;4746;35.664;139.738;2022-10-31T08:13:12;21.20;54.00
9414;DHT22;4746;35.664;139.738;2022-10-31T08:15:41;21.00;57.70
9414;DHT22;4746;35.664;139.738;2022-10-31T08:18:15;20.80;60.00
9414;DHT22;4746;35.664;139.738;2022-10-31T08:20:43;20.60;64.80
9414;DHT22;4746;35.664;139.738;2022-10-31T08:23:12;20.50;66.50
9414;DHT22;4746;35.664;139.738;2022-10-31T08:25:40;20.40;69.60
9414;DHT22;4746;35.664;139.738;2022-10-31T08:28:10;20.40;73.40
9414;DHT22;4746;35.664;139.738;2022-10-31T08:30:38;20.30;74.70
9414;DHT22;4746;35.664;139.738;2022-10-31T08:33:15;20.30;75.50
9414;DHT22;4746;35.664;139.738;2022-10-31T08:35:45;20.20;79.70
9414;DHT22;4746;35.664;139.738;2022-10-31T08:38:13;20.10;79.80
9414;DHT22;4746;35.664;139.738;2022-10-31T08:40:41;19.90;81.80
9414;DHT22;4746;35.664;139.738;2022-10-31T08:43:13;19.80;83.20
9414;DHT22;4746;35.664;139.738;2022-10-31T08:45:44;19.70;85.20
9414;DHT22;4746;35.664;139.738;2022-10-31T08:48:16;19.60;86.40
9414;DHT22;4746;35.664;139.738;2022-10-31T08:50:45;19.60;89.20
9414;DHT22;4746;35.664;139.738;2022-10-31T08:53:15;19.60;90.30
9414;DHT22;4746;35.664;139.738;2022-10-31T08:55:45;19.50;91.40
9414;DHT22;4746;35.664;139.738;2022-10-31T08:58:18;19.50;93.00
9414;DHT22;4746;35.664;139.738;2022-10-31T09:00:48;19.30;93.60
9414;DHT22;4746;35.664;139.738;2022-10-31T09:03:23;19.20;93.80
9414;DHT22;4746;35.664;139.738;2022-10-31T09:05:58;19.20;95.20
9414;DHT22;4746;35.664;139.738;2022-10-31T09:08:32;19.10;96.70
9414;DHT22;4746;35.664;139.738;2022-10-31T09:11:00;19.10;97.60
9414;DHT22;4746;35.664;139.738;2022-10-31T09:13:28;19.00;99.00
9414;DHT22;4746;35.664;139.738;2022-10-31T09:15:57;18.90;99.40
9414;DHT22;4746;35.664;139.738;2022-10-31T09:18:27;18.90;99.90
9414;DHT22;4746;35.664;139.738;2022-10-31T09:20:58;18.90;99.90
9414;DHT22;4746;35.664;139.738;2022-10-31T09:23:26;18.80;99.90
9414;DHT22;4746;35.664;139.738;2022-10-31T09:25:55;18.70;99.90
9414;DHT22;4746;35.664;139.738;2022-10-31T09:28:23;18.70;99.90
9414;DHT22;4746;35.664;139.738;2022-10-31T09:30:53;18.70;99.90
9414;DHT22;4746;35.664;139.738;2022-10-31T09:33:21;18.70;99.90
9414;DHT22;4746;35.664;139.738;2022-10-31T09:35:49;18.70;99.90
9414;DHT22;4746;35.664;139.738;2022-10-31T09:38:19;18.60;99.90
9414;DHT22;4746;35.664;139.738;2022-10-31T09:40:56;18.50;99.90
9414;DHT22;4746;35.664;139.738;2022-10-31T09:43:41;18.50;99.90
9414;DHT22;4746;35.664;139.738;2022-10-31T09:55:53;18.30;99.90
9414;DHT22;4746;35.664;139.738;2022-10-31T09:58:28;18.30;99.90
9414;DHT22;4746;35.664;139.738;2022-10-31T10:01:01;18.30;99.90
9414;DHT22;4746;35.664;139.738;2022-10-31T10:03:38;18.30;99.90
9414;DHT22;4746;35.664;139.738;2022-10-31T10:06:27;18.20;99.90
9414;DHT22;4746;35.664;139.738;2022-10-31T10:08:57;18.20;99.90
9414;DHT22;4746;35.664;139.738;2022-10-31T10:14:51;18.20;99.90
9414;DHT22;4746;35.664;139.738;2022-10-31T10:18:08;18.10;99.90
9414;DHT22;4746;35.664;139.738;2022-10-31T10:20:44;18.10;99.90
9414;DHT22;4746;35.664;139.738;2022-10-31T10:26:37;18.10;99.90
9414;DHT22;4746;35.664;139.738;2022-10-31T10:29:58;18.00;99.90
9414;DHT22;4746;35.664;139.738;2022-10-31T10:36:28;18.00;99.90
9414;DHT22;4746;35.664;139.738;2022-10-31T10:39:14;18.00;99.90
9414;DHT22;4746;35.664;139.738;2022-10-31T10:41:50;18.00;99.90
9414;DHT22;4746;35.664;139.738;2022-10-31T10:44:43;18.00;99.90
9414;DHT22;4746;35.664;139.738;2022-10-31T10:47:43;18.00;99.90
9414;DHT22;4746;35.664;139.738;2022-10-31T10:50:27;18.00;99.90
9414;DHT22;4746;35.664;139.738;2022-10-31T10:53:18;17.90;99.90
9414;DHT22;4746;35.664;139.738;2022-10-31T10:56:20;17.90;99.90
9414;DHT22;4746;35.664;139.738;2022-10-31T10:59:13;17.90;99.90
9414;DHT22;4746;35.664;139.738;2022-10-31T11:01:43;17.80;99.90
9414;DHT22;4746;35.664;139.738;2022-10-31T11:04:23;17.80;99.90
9414;DHT22;4746;35.664;139.738;2022-10-31T11:07:00;17.80;99.90
9414;DHT22;4746;35.664;139.738;2022-10-31T11:09:33;17.80;99.90
9414;DHT22;4746;35.664;139.738;2022-10-31T11:12:24;17.80;99.90
9414;DHT22;4746;35.664;139.738;2022-10-31T11:14:58;17.70;99.90
9414;DHT22;4746;35.664;139.738;2022-10-31T11:17:35;17.70;99.90
9414;DHT22;4746;35.664;139.738;2022-10-31T11:22:45;17.70;99.90
9414;DHT22;4746;35.664;139.738;2022-10-31T11:28:03;17.70;99.90
9414;DHT22;4746;35.664;139.738;2022-10-31T11:30:52;17.70;99.90
9414;DHT22;4746;35.664;139.738;2022-10-31T11:36:22;17.60;99.90
9414;DHT22;4746;35.664;139.738;2022-10-31T11:38:53;17.60;99.90
9414;DHT22;4746;35.664;139.738;2022-10-31T11:41:31;17.60;99.90
9414;DHT22;4746;35.664;139.738;2022-10-31T11:49:38;17.60;99.90
9414;DHT22;4746;35.664;139.738;2022-10-31T11:57:55;17.60;99.90
9414;DHT22;4746;35.664;139.738;2022-10-31T12:03:25;17.60;99.90
9414;DHT22;4746;35.664;139.738;2022-10-31T12:06:09;17.60;99.90
9414;DHT22;4746;35.664;139.738;2022-10-31T12:08:47;17.60;99.90
9414;DHT22;4746;35.664;139.738;2022-10-31T12:11:47;17.60;99.90
9414;DHT22;4746;35.664;139.738;2022-10-31T12:18:24;17.50;99.90
9414;DHT22;4746;35.664;139.738;2022-10-31T12:27:17;17.50;99.90
9414;DHT22;4746;35.664;139.738;2022-10-31T12:33:45;17.40;99.90
9414;DHT22;4746;35.664;139.738;2022-10-31T12:45:52;17.20;99.90
9414;DHT22;4746;35.664;139.738;2022-10-31T12:52:07;17.20;99.90
9414;DHT22;4746;35.664;139.738;2022-10-31T12:57:57;17.10;99.90
9414;DHT22;4746;35.664;139.738;2022-10-31T13:00:31;17.20;99.90
9414;DHT22;4746;35.664;139.738;2022-10-31T13:03:25;17.10;99.90
9414;DHT22;4746;35.664;139.738;2022-10-31T13:06:21;17.10;99.90
9414;DHT22;4746;35.664;139.738;2022-10-31T13:09:01;17.00;99.90
9414;DHT22;4746;35.664;139.738;2022-10-31T13:11:44;17.00;99.90
9414;DHT22;4746;35.664;139.738;2022-10-31T13:14:42;17.00;99.90
9414;DHT22;4746;35.664;139.738;2022-10-31T13:17:35;17.00;99.90
9414;DHT22;4746;35.664;139.738;2022-10-31T13:20:16;16.90;99.90
9414;DHT22;4746;35.664;139.738;2022-10-31T13:26:10;16.80;99.90
9414;DHT22;4746;35.664;139.738;2022-10-31T13:31:40;16.80;99.90
9414;DHT22;4746;35.664;139.738;2022-10-31T13:34:36;16.80;99.90
9414;DHT22;4746;35.664;139.738;2022-10-31T13:39:48;16.70;99.90
9414;DHT22;4746;35.664;139.738;2022-10-31T13:45:29;16.60;99.90
9414;DHT22;4746;35.664;139.738;2022-10-31T13:48:18;16.50;99.90
9414;DHT22;4746;35.664;139.738;2022-10-31T13:50:58;16.40;99.90
9414;DHT22;4746;35.664;139.738;2022-10-31T13:53:56;16.40;99.90
9414;DHT22;4746;35.664;139.738;2022-10-31T13:56:34;16.30;99.90
9414;DHT22;4746;35.664;139.738;2022-10-31T14:01:52;16.20;99.90
9414;DHT22;4746;35.664;139.738;2022-10-31T14:04:38;16.20;99.90
9414;DHT22;4746;35.664;139.738;2022-10-31T14:07:21;16.10;99.90
9414;DHT22;4746;35.664;139.738;2022-10-31T14:09:54;16.00;99.90
9414;DHT22;4746;35.664;139.738;2022-10-31T14:12:39;16.10;99.90
9414;DHT22;4746;35.664;139.738;2022-10-31T14:15:20;16.00;99.90
9414;DHT22;4746;35.664;139.738;2022-10-31T14:18:01;16.00;99.90
9414;DHT22;4746;35.664;139.738;2022-10-31T14:20:44;15.90;99.90
9414;DHT22;4746;35.664;139.738;2022-10-31T14:26:19;15.90;99.90
9414;DHT22;4746;35.664;139.738;2022-10-31T14:28:55;15.90;99.90
9414;DHT22;4746;35.664;139.738;2022-10-31T14:31:59;15.80;99.90
9414;DHT22;4746;35.664;139.738;2022-10-31T14:34:56;15.80;99.90
9414;DHT22;4746;35.664;139.738;2022-10-31T14:37:31;15.70;99.90
9414;DHT22;4746;35.664;139.738;2022-10-31T14:40:25;15.70;99.90
9414;DHT22;4746;35.664;139.738;2022-10-31T14:49:34;15.50;99.90
9414;DHT22;4746;35.664;139.738;2022-10-31T14:52:14;15.50;99.90
9414;DHT22;4746;35.664;139.738;2022-10-31T14:54:52;15.40;99.90
9414;DHT22;4746;35.664;139.738;2022-10-31T14:57:34;15.40;99.90
9414;DHT22;4746;35.664;139.738;2022-10-31T15:00:07;15.40;99.90
9414;DHT22;4746;35.664;139.738;2022-10-31T15:03:12;15.30;99.90
9414;DHT22;4746;35.664;139.738;2022-10-31T15:05:52;15.30;99.90
9414;DHT22;4746;35.664;139.738;2022-10-31T15:08:49;15.20;99.90
9414;DHT22;4746;35.664;139.738;2022-10-31T15:11:23;15.20;99.90
9414;DHT22;4746;35.664;139.738;2022-10-31T15:13:54;15.10;99.90
9414;DHT22;4746;35.664;139.738;2022-10-31T15:16:38;15.00;99.90
9414;DHT22;4746;35.664;139.738;2022-10-31T15:19:24;15.00;99.90
9414;DHT22;4746;35.664;139.738;2022-10-31T15:21:57;14.90;99.90
9414;DHT22;4746;35.664;139.738;2022-10-31T15:24:35;14.90;99.90
9414;DHT22;4746;35.664;139.738;2022-10-31T15:27:05;14.80;99.90
9414;DHT22;4746;35.664;139.738;2022-10-31T15:29:56;14.80;99.90
9414;DHT22;4746;35.664;139.738;2022-10-31T15:32:27;14.70;99.90
9414;DHT22;4746;35.664;139.738;2022-10-31T15:34:56;14.70;99.90
9414;DHT22;4746;35.664;139.738;2022-10-31T15:37:25;14.60;99.90
9414;DHT22;4746;35.664;139.738;2022-10-31T15:39:54;14.60;99.90
9414;DHT22;4746;35.664;139.738;2022-10-31T15:42:35;14.50;99.90
9414;DHT22;4746;35.664;139.738;2022-10-31T15:47:46;14.50;99.90
9414;DHT22;4746;35.664;139.738;2022-10-31T15:50:40;14.50;99.90
9414;DHT22;4746;35.664;139.738;2022-10-31T15:53:20;14.50;99.90
9414;DHT22;4746;35.664;139.738;2022-10-31T15:55:52;14.50;99.90
9414;DHT22;4746;35.664;139.738;2022-10-31T15:58:26;14.40;99.90
9414;DHT22;4746;35.664;139.738;2022-10-31T16:01:04;14.40;99.90
9414;DHT22;4746;35.664;139.738;2022-10-31T16:03:37;14.40;99.90
9414;DHT22;4746;35.664;139.738;2022-10-31T16:06:20;14.40;99.90
9414;DHT22;4746;35.664;139.738;2022-10-31T16:08:49;14.40;99.90
9414;DHT22;4746;35.664;139.738;2022-10-31T16:11:39;14.40;99.90
9414;DHT22;4746;35.664;139.738;2022-10-31T16:14:24;14.40;99.90
9414;DHT22;4746;35.664;139.738;2022-10-31T16:16:58;14.40;99.90
9414;DHT22;4746;35.664;139.738;2022-10-31T16:19:30;14.40;99.90
9414;DHT22;4746;35.664;139.738;2022-10-31T16:22:12;14.40;99.90
9414;DHT22;4746;35.664;139.738;2022-10-31T16:24:59;14.40;99.90
9414;DHT22;4746;35.664;139.738;2022-10-31T16:27:36;14.40;99.90
9414;DHT22;4746;35.664;139.738;2022-10-31T16:30:39;14.40;99.90
9414;DHT22;4746;35.664;139.738;2022-10-31T16:33:35;14.30;99.90
9414;DHT22;4746;35.664;139.738;2022-10-31T16:38:59;14.30;99.90
9414;DHT22;4746;35.664;139.738;2022-10-31T16:41:27;14.30;99.90
9414;DHT22;4746;35.664;139.738;2022-10-31T16:43:55;14.30;99.90
9414;DHT22;4746;35.664;139.738;2022-10-31T16:46:25;14.30;99.90
9414;DHT22;4746;35.664;139.738;2022-10-31T16:48:55;14.30;99.90
9414;DHT22;4746;35.664;139.738;2022-10-31T16:51:23;14.20;99.90
9414;DHT22;4746;35.664;139.738;2022-10-31T16:53:54;14.20;99.90
9414;DHT22;4746;35.664;139.738;2022-10-31T16:56:30;14.20;99.90
9414;DHT22;4746;35.664;139.738;2022-10-31T16:59:02;14.20;99.90
9414;DHT22;4746;35.664;139.738;2022-10-31T17:01:33;14.20;99.90
9414;DHT22;4746;35.664;139.738;2022-10-31T17:04:01;14.20;99.90
9414;DHT22;4746;35.664;139.738;2022-10-31T17:06:30;14.20;99.90
9414;DHT22;4746;35.664;139.738;2022-10-31T17:08:57;14.20;99.90
9414;DHT22;4746;35.664;139.738;2022-10-31T17:11:26;14.10;99.90
9414;DHT22;4746;35.664;139.738;2022-10-31T17:13:54;14.20;99.90
9414;DHT22;4746;35.664;139.738;2022-10-31T17:16:22;14.10;99.90
9414;DHT22;4746;35.664;139.738;2022-10-31T17:18:50;14.10;99.90
9414;DHT22;4746;35.664;139.738;2022-10-31T17:21:20;14.10;99.90
9414;DHT22;4746;35.664;139.738;2022-10-31T17:23:49;14.10;99.90
9414;DHT22;4746;35.664;139.738;2022-10-31T17:26:18;14.00;99.90
9414;DHT22;4746;35.664;139.738;2022-10-31T17:28:46;14.00;99.90
9414;DHT22;4746;35.664;139.738;2022-10-31T17:31:30;14.00;99.90
9414;DHT22;4746;35.664;139.738;2022-10-31T17:34:00;14.00;99.90
9414;DHT22;4746;35.664;139.738;2022-10-31T17:36:29;14.00;99.90
9414;DHT22;4746;35.664;139.738;2022-10-31T17:38:58;14.00;99.90
9414;DHT22;4746;35.664;139.738;2022-10-31T17:41:26;13.90;99.90
9414;DHT22;4746;35.664;139.738;2022-10-31T17:43:55;13.90;99.90
9414;DHT22;4746;35.664;139.738;2022-10-31T17:46:24;13.90;99.90
9414;DHT22;4746;35.664;139.738;2022-10-31T17:48:52;13.90;99.90
9414;DHT22;4746;35.664;139.738;2022-10-31T17:51:22;13.90;99.90
9414;DHT22;4746;35.664;139.738;2022-10-31T17:53:49;13.90;99.90
9414;DHT22;4746;35.664;139.738;2022-10-31T17:56:17;13.90;99.90
9414;DHT22;4746;35.664;139.738;2022-10-31T17:58:44;13.90;99.90
9414;DHT22;4746;35.664;139.738;2022-10-31T18:01:15;13.90;99.90
9414;DHT22;4746;35.664;139.738;2022-10-31T18:03:44;13.90;99.90
9414;DHT22;4746;35.664;139.738;2022-10-31T18:06:14;13.90;99.90
9414;DHT22;4746;35.664;139.738;2022-10-31T18:08:44;14.00;99.90
9414;DHT22;4746;35.664;139.738;2022-10-31T18:11:19;14.00;99.90
9414;DHT22;4746;35.664;139.738;2022-10-31T18:13:52;14.00;99.90
9414;DHT22;4746;35.664;139.738;2022-10-31T18:16:21;14.00;99.90
9414;DHT22;4746;35.664;139.738;2022-10-31T18:18:51;13.90;99.90
9414;DHT22;4746;35.664;139.738;2022-10-31T18:21:21;13.90;99.90
9414;DHT22;4746;35.664;139.738;2022-10-31T18:23:55;13.90;99.90
9414;DHT22;4746;35.664;139.738;2022-10-31T18:26:25;13.90;99.90
9414;DHT22;4746;35.664;139.738;2022-10-31T18:28:53;13.90;99.90
9414;DHT22;4746;35.664;139.738;2022-10-31T18:31:21;13.90;99.90
9414;DHT22;4746;35.664;139.738;2022-10-31T18:33:52;13.90;99.90
9414;DHT22;4746;35.664;139.738;2022-10-31T18:36:21;13.90;99.90
9414;DHT22;4746;35.664;139.738;2022-10-31T18:38:49;14.00;99.90
9414;DHT22;4746;35.664;139.738;2022-10-31T18:41:17;13.90;99.90
9414;DHT22;4746;35.664;139.738;2022-10-31T18:43:45;13.90;99.90
9414;DHT22;4746;35.664;139.738;2022-10-31T18:46:15;13.90;99.90
9414;DHT22;4746;35.664;139.738;2022-10-31T18:48:44;13.90;99.90